sensor_id;sensor_type;location;lat;lon;timestamp;temperature;humidity
31783;DHT22;18351;47.560;9.708;2023-05-15T00:01:12;12.20;99.90
31783;DHT22;18351;47.560;9.708;2023-05-15T00:03:38;12.30;99.90
31783;DHT22;18351;47.560;9.708;2023-05-15T00:06:04;12.30;99.90
31783;DHT22;18351;47.560;9.708;2023-05-15T00:08:30;12.20;99.90
31783;DHT22;18351;47.560;9.708;2023-05-15T00:10:56;12.20;99.90
31783;DHT22;18351;47.560;9.708;2023-05-15T00:13:22;12.20;99.90
31783;DHT22;18351;47.560;9.708;2023-05-15T00:15:47;12.20;99.90
31783;DHT22;18351;47.560;9.708;2023-05-15T00:18:13;12.20;99.90
31783;DHT22;18351;47.560;9.708;2023-05-15T00:20:38;12.20;99.90
31783;DHT22;18351;47.560;9.708;2023-05-15T00:23:04;12.20;99.90
31783;DHT22;18351;47.560;9.708;2023-05-15T00:25:29;12.20;99.90
31783;DHT22;18351;47.560;9.708;2023-05-15T00:27:55;12.10;99.90
31783;DHT22;18351;47.560;9.708;2023-05-15T00:30:20;12.10;99.90
31783;DHT22;18351;47.560;9.708;2023-05-15T00:32:46;12.10;99.90
31783;DHT22;18351;47.560;9.708;2023-05-15T00:35:11;12.10;99.90
31783;DHT22;18351;47.560;9.708;2023-05-15T00:37:37;12.10;99.90
31783;DHT22;18351;47.560;9.708;2023-05-15T00:40:03;12.10;99.90
31783;DHT22;18351;47.560;9.708;2023-05-15T00:42:29;12.10;99.90
31783;DHT22;18351;47.560;9.708;2023-05-15T00:44:56;12.10;99.90
31783;DHT22;18351;47.560;9.708;2023-05-15T00:47:23;12.10;99.90
31783;DHT22;18351;47.560;9.708;2023-05-15T00:49:51;12.10;99.90
31783;DHT22;18351;47.560;9.708;2023-05-15T00:52:17;12.10;99.90
31783;DHT22;18351;47.560;9.708;2023-05-15T00:54:43;12.00;99.90
31783;DHT22;18351;47.560;9.708;2023-05-15T00:57:09;12.00;99.90
31783;DHT22;18351;47.560;9.708;2023-05-15T00:59:35;12.00;99.90
31783;DHT22;18351;47.560;9.708;2023-05-15T01:02:03;12.00;99.90
31783;DHT22;18351;47.560;9.708;2023-05-15T01:04:28;12.00;99.90
31783;DHT22;18351;47.560;9.708;2023-05-15T01:06:54;12.00;99.90
31783;DHT22;18351;47.560;9.708;2023-05-15T01:09:23;12.00;99.90
31783;DHT22;18351;47.560;9.708;2023-05-15T01:11:50;12.00;99.90
31783;DHT22;18351;47.560;9.708;2023-05-15T01:14:17;11.90;99.90
31783;DHT22;18351;47.560;9.708;2023-05-15T01:16:43;11.90;99.90
31783;DHT22;18351;47.560;9.708;2023-05-15T01:19:08;11.90;99.90
31783;DHT22;18351;47.560;9.708;2023-05-15T01:32:42;11.80;99.90
31783;DHT22;18351;47.560;9.708;2023-05-15T01:35:15;11.90;99.90
31783;DHT22;18351;47.560;9.708;2023-05-15T01:37:53;11.90;99.90
31783;DHT22;18351;47.560;9.708;2023-05-15T01:40:24;11.90;99.90
31783;DHT22;18351;47.560;9.708;2023-05-15T01:42:53;12.00;99.90
31783;DHT22;18351;47.560;9.708;2023-05-15T01:45:22;11.90;99.90
31783;DHT22;18351;47.560;9.708;2023-05-15T01:47:48;11.90;99.90
31783;DHT22;18351;47.560;9.708;2023-05-15T01:50:16;12.00;99.90
31783;DHT22;18351;47.560;9.708;2023-05-15T01:52:48;12.00;99.90
31783;DHT22;18351;47.560;9.708;2023-05-15T01:55:14;12.00;99.90
31783;DHT22;18351;47.560;9.708;2023-05-15T01:57:41;12.00;99.90
31783;DHT22;18351;47.560;9.708;2023-05-15T02:00:08;12.00;99.90
31783;DHT22;18351;47.560;9.708;2023-05-15T02:02:35;12.00;99.90
31783;DHT22;18351;47.560;9.708;2023-05-15T02:05:01;12.00;99.90
31783;DHT22;18351;47.560;9.708;2023-05-15T02:07:28;12.10;99.90
31783;DHT22;18351;47.560;9.708;2023-05-15T02:09:54;12.00;99.90
31783;DHT22;18351;47.560;9.708;2023-05-15T02:12:20;12.00;99.90
31783;DHT22;18351;47.560;9.708;2023-05-15T02:14:48;12.00;99.90
31783;DHT22;18351;47.560;9.708;2023-05-15T02:17:14;12.00;99.90
31783;DHT22;18351;47.560;9.708;2023-05-15T02:19:40;12.00;99.90
31783;DHT22;18351;47.560;9.708;2023-05-15T02:22:06;12.10;99.90
31783;DHT22;18351;47.560;9.708;2023-05-15T02:24:31;12.10;99.90
31783;DHT22;18351;47.560;9.708;2023-05-15T02:29:36;12.00;99.90
31783;DHT22;18351;47.560;9.708;2023-05-15T02:32:21;12.00;99.90
31783;DHT22;18351;47.560;9.708;2023-05-15T02:37:30;12.00;99.90
31783;DHT22;18351;47.560;9.708;2023-05-15T02:39:56;12.00;99.90
31783;DHT22;18351;47.560;9.708;2023-05-15T02:42:25;12.00;99.90
31783;DHT22;18351;47.560;9.708;2023-05-15T02:44:53;12.10;99.90
31783;DHT22;18351;47.560;9.708;2023-05-15T02:47:20;12.10;99.90
31783;DHT22;18351;47.560;9.708;2023-05-15T02:49:46;12.10;99.90
31783;DHT22;18351;47.560;9.708;2023-05-15T02:52:12;12.10;99.90
31783;DHT22;18351;47.560;9.708;2023-05-15T02:54:38;12.10;99.90
31783;DHT22;18351;47.560;9.708;2023-05-15T02:57:03;12.00;99.90
31783;DHT22;18351;47.560;9.708;2023-05-15T02:59:29;12.00;99.90
31783;DHT22;18351;47.560;9.708;2023-05-15T03:01:55;12.00;99.90
31783;DHT22;18351;47.560;9.708;2023-05-15T03:04:20;12.00;99.90
31783;DHT22;18351;47.560;9.708;2023-05-15T03:06:46;12.00;99.90
31783;DHT22;18351;47.560;9.708;2023-05-15T03:09:11;12.00;99.90
31783;DHT22;18351;47.560;9.708;2023-05-15T03:11:37;12.00;99.90
31783;DHT22;18351;47.560;9.708;2023-05-15T03:14:02;12.00;99.90
31783;DHT22;18351;47.560;9.708;2023-05-15T03:16:28;12.00;99.90
31783;DHT22;18351;47.560;9.708;2023-05-15T03:18:53;12.00;99.90
31783;DHT22;18351;47.560;9.708;2023-05-15T03:21:19;12.00;99.90
31783;DHT22;18351;47.560;9.708;2023-05-15T03:23:45;12.00;99.90
31783;DHT22;18351;47.560;9.708;2023-05-15T03:26:10;11.90;99.90
31783;DHT22;18351;47.560;9.708;2023-05-15T03:28:36;11.90;99.90
31783;DHT22;18351;47.560;9.708;2023-05-15T03:31:02;11.90;99.90
31783;DHT22;18351;47.560;9.708;2023-05-15T03:33:29;11.80;99.90
31783;DHT22;18351;47.560;9.708;2023-05-15T03:35:55;11.80;99.90
31783;DHT22;18351;47.560;9.708;2023-05-15T03:38:20;11.80;99.90
31783;DHT22;18351;47.560;9.708;2023-05-15T03:40:46;11.80;99.90
31783;DHT22;18351;47.560;9.708;2023-05-15T03:43:11;11.90;99.90
31783;DHT22;18351;47.560;9.708;2023-05-15T03:45:37;11.80;99.90
31783;DHT22;18351;47.560;9.708;2023-05-15T03:48:04;11.90;99.90
31783;DHT22;18351;47.560;9.708;2023-05-15T03:50:29;11.80;99.90
31783;DHT22;18351;47.560;9.708;2023-05-15T03:52:55;11.80;99.90
31783;DHT22;18351;47.560;9.708;2023-05-15T03:55:21;11.80;99.90
31783;DHT22;18351;47.560;9.708;2023-05-15T03:57:46;11.70;99.90
31783;DHT22;18351;47.560;9.708;2023-05-15T04:00:12;11.70;99.90
31783;DHT22;18351;47.560;9.708;2023-05-15T04:02:38;11.70;99.90
31783;DHT22;18351;47.560;9.708;2023-05-15T04:05:05;11.80;99.90
31783;DHT22;18351;47.560;9.708;2023-05-15T04:07:32;11.80;99.90
31783;DHT22;18351;47.560;9.708;2023-05-15T04:09:57;11.90;99.90
31783;DHT22;18351;47.560;9.708;2023-05-15T04:12:27;11.90;99.90
31783;DHT22;18351;47.560;9.708;2023-05-15T04:14:55;11.90;99.90
31783;DHT22;18351;47.560;9.708;2023-05-15T04:17:20;11.90;99.90
31783;DHT22;18351;47.560;9.708;2023-05-15T04:19:46;11.90;99.90
31783;DHT22;18351;47.560;9.708;2023-05-15T04:22:12;11.90;99.90
31783;DHT22;18351;47.560;9.708;2023-05-15T04:24:38;11.90;99.90
31783;DHT22;18351;47.560;9.708;2023-05-15T04:27:03;11.90;99.90
31783;DHT22;18351;47.560;9.708;2023-05-15T04:29:29;11.90;99.90
31783;DHT22;18351;47.560;9.708;2023-05-15T04:31:55;12.00;99.90
31783;DHT22;18351;47.560;9.708;2023-05-15T04:34:20;11.90;99.90
31783;DHT22;18351;47.560;9.708;2023-05-15T04:36:46;12.00;99.90
31783;DHT22;18351;47.560;9.708;2023-05-15T04:39:12;12.00;99.90
31783;DHT22;18351;47.560;9.708;2023-05-15T04:41:37;12.00;99.90
31783;DHT22;18351;47.560;9.708;2023-05-15T04:44:03;12.00;99.90
31783;DHT22;18351;47.560;9.708;2023-05-15T04:46:29;11.90;99.90
31783;DHT22;18351;47.560;9.708;2023-05-15T04:48:54;12.00;99.90
31783;DHT22;18351;47.560;9.708;2023-05-15T04:51:20;12.00;99.90
31783;DHT22;18351;47.560;9.708;2023-05-15T04:53:45;12.10;99.90
31783;DHT22;18351;47.560;9.708;2023-05-15T04:56:11;12.10;99.90
31783;DHT22;18351;47.560;9.708;2023-05-15T04:58:36;12.20;99.90
31783;DHT22;18351;47.560;9.708;2023-05-15T05:01:02;12.20;99.90
31783;DHT22;18351;47.560;9.708;2023-05-15T05:03:27;12.10;99.90
31783;DHT22;18351;47.560;9.708;2023-05-15T05:05:53;12.20;99.90
31783;DHT22;18351;47.560;9.708;2023-05-15T05:08:19;12.30;99.90
31783;DHT22;18351;47.560;9.708;2023-05-15T05:10:44;12.30;99.90
31783;DHT22;18351;47.560;9.708;2023-05-15T05:13:10;12.40;99.90
31783;DHT22;18351;47.560;9.708;2023-05-15T05:15:35;12.40;99.90
31783;DHT22;18351;47.560;9.708;2023-05-15T05:18:01;12.50;99.90
31783;DHT22;18351;47.560;9.708;2023-05-15T05:20:27;12.50;99.90
31783;DHT22;18351;47.560;9.708;2023-05-15T05:22:52;12.50;99.90
31783;DHT22;18351;47.560;9.708;2023-05-15T05:25:18;12.60;99.90
31783;DHT22;18351;47.560;9.708;2023-05-15T05:27:44;12.60;99.90
31783;DHT22;18351;47.560;9.708;2023-05-15T05:30:10;12.60;99.90
31783;DHT22;18351;47.560;9.708;2023-05-15T05:32:35;12.70;99.90
31783;DHT22;18351;47.560;9.708;2023-05-15T05:35:01;12.70;99.90
31783;DHT22;18351;47.560;9.708;2023-05-15T05:37:28;12.70;99.90
31783;DHT22;18351;47.560;9.708;2023-05-15T05:39:53;12.70;99.90
31783;DHT22;18351;47.560;9.708;2023-05-15T05:42:19;12.70;99.90
31783;DHT22;18351;47.560;9.708;2023-05-15T05:44:44;12.70;99.90
31783;DHT22;18351;47.560;9.708;2023-05-15T05:47:10;12.70;99.90
31783;DHT22;18351;47.560;9.708;2023-05-15T05:49:36;12.70;99.90
31783;DHT22;18351;47.560;9.708;2023-05-15T05:52:06;12.70;99.90
31783;DHT22;18351;47.560;9.708;2023-05-15T05:54:32;12.80;99.90
31783;DHT22;18351;47.560;9.708;2023-05-15T05:56:57;12.80;99.90
31783;DHT22;18351;47.560;9.708;2023-05-15T05:59:23;12.80;99.90
31783;DHT22;18351;47.560;9.708;2023-05-15T06:01:49;12.90;99.90
31783;DHT22;18351;47.560;9.708;2023-05-15T06:04:15;12.90;99.90
31783;DHT22;18351;47.560;9.708;2023-05-15T06:06:40;12.90;99.90
31783;DHT22;18351;47.560;9.708;2023-05-15T06:09:06;13.00;99.90
31783;DHT22;18351;47.560;9.708;2023-05-15T06:11:32;12.90;99.90
31783;DHT22;18351;47.560;9.708;2023-05-15T06:13:57;12.90;99.90
31783;DHT22;18351;47.560;9.708;2023-05-15T06:16:23;12.80;99.90
31783;DHT22;18351;47.560;9.708;2023-05-15T06:18:48;12.80;99.90
31783;DHT22;18351;47.560;9.708;2023-05-15T06:21:14;12.70;99.90
31783;DHT22;18351;47.560;9.708;2023-05-15T06:23:39;12.70;99.90
31783;DHT22;18351;47.560;9.708;2023-05-15T06:26:05;12.70;99.90
31783;DHT22;18351;47.560;9.708;2023-05-15T06:28:30;12.70;99.90
31783;DHT22;18351;47.560;9.708;2023-05-15T06:30:56;12.70;99.90
31783;DHT22;18351;47.560;9.708;2023-05-15T06:33:21;12.70;99.90
31783;DHT22;18351;47.560;9.708;2023-05-15T06:35:47;12.70;99.90
31783;DHT22;18351;47.560;9.708;2023-05-15T06:38:12;12.70;99.90
31783;DHT22;18351;47.560;9.708;2023-05-15T06:40:38;12.60;99.90
31783;DHT22;18351;47.560;9.708;2023-05-15T06:43:03;12.60;99.90
31783;DHT22;18351;47.560;9.708;2023-05-15T06:45:29;12.60;99.90
31783;DHT22;18351;47.560;9.708;2023-05-15T06:47:55;12.60;99.90
31783;DHT22;18351;47.560;9.708;2023-05-15T06:50:21;12.70;99.90
31783;DHT22;18351;47.560;9.708;2023-05-15T06:52:47;12.70;99.90
31783;DHT22;18351;47.560;9.708;2023-05-15T06:55:13;12.80;99.90
31783;DHT22;18351;47.560;9.708;2023-05-15T06:57:38;12.90;99.90
31783;DHT22;18351;47.560;9.708;2023-05-15T07:00:04;13.00;99.90
31783;DHT22;18351;47.560;9.708;2023-05-15T07:02:30;13.00;99.90
31783;DHT22;18351;47.560;9.708;2023-05-15T07:04:55;13.10;99.90
31783;DHT22;18351;47.560;9.708;2023-05-15T07:07:21;13.20;99.90
31783;DHT22;18351;47.560;9.708;2023-05-15T07:09:46;13.20;99.90
31783;DHT22;18351;47.560;9.708;2023-05-15T07:12:14;13.20;99.90
31783;DHT22;18351;47.560;9.708;2023-05-15T07:14:40;13.40;99.90
31783;DHT22;18351;47.560;9.708;2023-05-15T07:17:05;13.40;99.90
31783;DHT22;18351;47.560;9.708;2023-05-15T07:19:31;13.50;99.90
31783;DHT22;18351;47.560;9.708;2023-05-15T07:21:57;13.50;99.90
31783;DHT22;18351;47.560;9.708;2023-05-15T07:24:22;13.50;99.90
31783;DHT22;18351;47.560;9.708;2023-05-15T07:26:48;13.50;99.90
31783;DHT22;18351;47.560;9.708;2023-05-15T07:29:13;13.40;99.90
31783;DHT22;18351;47.560;9.708;2023-05-15T07:31:39;13.30;99.90
31783;DHT22;18351;47.560;9.708;2023-05-15T07:34:06;13.30;99.90
31783;DHT22;18351;47.560;9.708;2023-05-15T07:36:31;13.20;99.90
31783;DHT22;18351;47.560;9.708;2023-05-15T07:38:57;13.10;99.90
31783;DHT22;18351;47.560;9.708;2023-05-15T07:41:23;13.10;99.90
31783;DHT22;18351;47.560;9.708;2023-05-15T07:43:48;13.00;99.90
31783;DHT22;18351;47.560;9.708;2023-05-15T07:46:14;12.80;99.90
31783;DHT22;18351;47.560;9.708;2023-05-15T07:48:39;12.50;99.90
31783;DHT22;18351;47.560;9.708;2023-05-15T07:51:05;12.40;99.90
31783;DHT22;18351;47.560;9.708;2023-05-15T07:53:30;12.30;99.90
31783;DHT22;18351;47.560;9.708;2023-05-15T07:55:57;12.20;99.90
31783;DHT22;18351;47.560;9.708;2023-05-15T07:58:23;12.20;99.90
31783;DHT22;18351;47.560;9.708;2023-05-15T08:00:48;12.40;99.90
31783;DHT22;18351;47.560;9.708;2023-05-15T08:03:14;12.70;99.90
31783;DHT22;18351;47.560;9.708;2023-05-15T08:05:40;12.90;99.90
31783;DHT22;18351;47.560;9.708;2023-05-15T08:08:05;13.00;99.90
31783;DHT22;18351;47.560;9.708;2023-05-15T08:10:31;13.10;99.90
31783;DHT22;18351;47.560;9.708;2023-05-15T08:12:56;13.20;99.90
31783;DHT22;18351;47.560;9.708;2023-05-15T08:15:22;13.20;99.90
31783;DHT22;18351;47.560;9.708;2023-05-15T08:17:48;13.20;99.90
31783;DHT22;18351;47.560;9.708;2023-05-15T08:20:14;13.20;99.90
31783;DHT22;18351;47.560;9.708;2023-05-15T08:22:40;13.30;99.90
31783;DHT22;18351;47.560;9.708;2023-05-15T08:25:06;13.40;99.90
31783;DHT22;18351;47.560;9.708;2023-05-15T08:27:33;13.50;99.90
31783;DHT22;18351;47.560;9.708;2023-05-15T08:29:58;13.60;99.90
31783;DHT22;18351;47.560;9.708;2023-05-15T08:32:24;13.70;99.90
31783;DHT22;18351;47.560;9.708;2023-05-15T08:34:50;13.80;99.90
31783;DHT22;18351;47.560;9.708;2023-05-15T08:37:16;14.00;99.90
31783;DHT22;18351;47.560;9.708;2023-05-15T08:39:42;14.10;99.90
31783;DHT22;18351;47.560;9.708;2023-05-15T08:44:41;14.40;99.90
31783;DHT22;18351;47.560;9.708;2023-05-15T08:47:07;14.60;99.90
31783;DHT22;18351;47.560;9.708;2023-05-15T08:52:14;14.90;99.90
31783;DHT22;18351;47.560;9.708;2023-05-15T08:54:40;15.00;99.90
31783;DHT22;18351;47.560;9.708;2023-05-15T08:57:08;15.10;99.90
31783;DHT22;18351;47.560;9.708;2023-05-15T08:59:34;15.20;99.90
31783;DHT22;18351;47.560;9.708;2023-05-15T09:02:00;15.30;99.90
31783;DHT22;18351;47.560;9.708;2023-05-15T09:04:26;15.40;99.90
31783;DHT22;18351;47.560;9.708;2023-05-15T09:06:52;15.50;99.90
31783;DHT22;18351;47.560;9.708;2023-05-15T09:09:19;15.60;99.90
31783;DHT22;18351;47.560;9.708;2023-05-15T09:11:45;15.60;99.90
31783;DHT22;18351;47.560;9.708;2023-05-15T09:14:12;15.50;99.90
31783;DHT22;18351;47.560;9.708;2023-05-15T09:16:38;15.50;99.90
31783;DHT22;18351;47.560;9.708;2023-05-15T09:19:06;15.60;99.90
31783;DHT22;18351;47.560;9.708;2023-05-15T09:21:33;15.80;99.90
31783;DHT22;18351;47.560;9.708;2023-05-15T09:24:21;16.20;99.90
31783;DHT22;18351;47.560;9.708;2023-05-15T09:27:05;16.80;99.90
31783;DHT22;18351;47.560;9.708;2023-05-15T09:29:33;17.30;99.90
31783;DHT22;18351;47.560;9.708;2023-05-15T09:32:02;17.60;99.90
31783;DHT22;18351;47.560;9.708;2023-05-15T09:34:30;17.80;99.90
31783;DHT22;18351;47.560;9.708;2023-05-15T09:36:56;17.70;99.90
31783;DHT22;18351;47.560;9.708;2023-05-15T09:39:22;17.70;99.90
31783;DHT22;18351;47.560;9.708;2023-05-15T09:41:48;17.90;99.90
31783;DHT22;18351;47.560;9.708;2023-05-15T09:44:18;18.00;99.90
31783;DHT22;18351;47.560;9.708;2023-05-15T09:46:44;18.00;99.90
31783;DHT22;18351;47.560;9.708;2023-05-15T09:49:10;18.20;99.90
31783;DHT22;18351;47.560;9.708;2023-05-15T09:51:36;18.30;99.90
31783;DHT22;18351;47.560;9.708;2023-05-15T09:54:02;18.50;99.90
31783;DHT22;18351;47.560;9.708;2023-05-15T09:56:28;18.70;99.90
31783;DHT22;18351;47.560;9.708;2023-05-15T09:58:57;18.70;99.90
31783;DHT22;18351;47.560;9.708;2023-05-15T10:01:24;18.80;99.90
31783;DHT22;18351;47.560;9.708;2023-05-15T10:04:00;18.80;99.90
31783;DHT22;18351;47.560;9.708;2023-05-15T10:06:26;18.60;99.90
31783;DHT22;18351;47.560;9.708;2023-05-15T10:08:54;18.30;99.90
31783;DHT22;18351;47.560;9.708;2023-05-15T10:11:22;17.90;99.90
31783;DHT22;18351;47.560;9.708;2023-05-15T10:13:48;17.60;99.90
31783;DHT22;18351;47.560;9.708;2023-05-15T10:16:14;17.30;99.90
31783;DHT22;18351;47.560;9.708;2023-05-15T10:18:43;17.00;99.90
31783;DHT22;18351;47.560;9.708;2023-05-15T10:21:11;16.80;99.90
31783;DHT22;18351;47.560;9.708;2023-05-15T10:23:40;16.60;99.90
31783;DHT22;18351;47.560;9.708;2023-05-15T10:26:13;16.40;99.90
31783;DHT22;18351;47.560;9.708;2023-05-15T10:28:40;16.40;99.90
31783;DHT22;18351;47.560;9.708;2023-05-15T10:31:09;16.10;99.90
31783;DHT22;18351;47.560;9.708;2023-05-15T10:33:35;16.00;99.90
31783;DHT22;18351;47.560;9.708;2023-05-15T10:36:02;15.90;99.90
31783;DHT22;18351;47.560;9.708;2023-05-15T10:38:28;15.90;99.90
31783;DHT22;18351;47.560;9.708;2023-05-15T10:40:56;15.80;99.90
31783;DHT22;18351;47.560;9.708;2023-05-15T10:43:23;15.90;99.90
31783;DHT22;18351;47.560;9.708;2023-05-15T10:45:51;16.00;99.90
31783;DHT22;18351;47.560;9.708;2023-05-15T10:48:18;16.00;99.90
31783;DHT22;18351;47.560;9.708;2023-05-15T10:50:44;16.00;99.90
31783;DHT22;18351;47.560;9.708;2023-05-15T10:53:10;16.10;99.90
31783;DHT22;18351;47.560;9.708;2023-05-15T10:55:35;16.20;99.90
31783;DHT22;18351;47.560;9.708;2023-05-15T10:58:06;16.30;99.90
31783;DHT22;18351;47.560;9.708;2023-05-15T11:00:32;16.50;99.90
31783;DHT22;18351;47.560;9.708;2023-05-15T11:02:58;16.70;99.90
31783;DHT22;18351;47.560;9.708;2023-05-15T11:05:25;16.70;99.90
31783;DHT22;18351;47.560;9.708;2023-05-15T11:10:47;16.60;99.90
31783;DHT22;18351;47.560;9.708;2023-05-15T11:13:13;16.60;99.90
31783;DHT22;18351;47.560;9.708;2023-05-15T11:15:43;16.70;99.90
31783;DHT22;18351;47.560;9.708;2023-05-15T11:18:09;16.70;99.90
31783;DHT22;18351;47.560;9.708;2023-05-15T11:23:05;16.70;99.90
31783;DHT22;18351;47.560;9.708;2023-05-15T11:25:31;16.80;99.90
31783;DHT22;18351;47.560;9.708;2023-05-15T11:27:57;16.80;99.90
31783;DHT22;18351;47.560;9.708;2023-05-15T11:30:37;16.80;99.90
31783;DHT22;18351;47.560;9.708;2023-05-15T11:33:07;16.90;99.90
31783;DHT22;18351;47.560;9.708;2023-05-15T11:35:46;17.10;99.90
31783;DHT22;18351;47.560;9.708;2023-05-15T11:38:23;17.20;99.90
31783;DHT22;18351;47.560;9.708;2023-05-15T11:40:53;17.40;99.90
31783;DHT22;18351;47.560;9.708;2023-05-15T11:43:34;17.50;99.90
31783;DHT22;18351;47.560;9.708;2023-05-15T11:48:46;17.40;99.90
31783;DHT22;18351;47.560;9.708;2023-05-15T11:51:21;17.40;99.90
31783;DHT22;18351;47.560;9.708;2023-05-15T11:53:49;17.40;99.90
31783;DHT22;18351;47.560;9.708;2023-05-15T11:56:23;17.50;99.90
31783;DHT22;18351;47.560;9.708;2023-05-15T11:58:57;17.50;99.90
31783;DHT22;18351;47.560;9.708;2023-05-15T12:01:22;17.70;99.90
31783;DHT22;18351;47.560;9.708;2023-05-15T12:03:49;17.90;99.90
31783;DHT22;18351;47.560;9.708;2023-05-15T12:06:15;18.10;99.90
31783;DHT22;18351;47.560;9.708;2023-05-15T12:08:41;18.10;99.90
31783;DHT22;18351;47.560;9.708;2023-05-15T12:11:07;18.10;99.90
31783;DHT22;18351;47.560;9.708;2023-05-15T12:13:33;18.30;99.90
31783;DHT22;18351;47.560;9.708;2023-05-15T12:16:00;18.60;99.90
31783;DHT22;18351;47.560;9.708;2023-05-15T12:18:28;18.60;99.90
31783;DHT22;18351;47.560;9.708;2023-05-15T12:20:55;18.80;99.90
31783;DHT22;18351;47.560;9.708;2023-05-15T12:23:24;18.90;99.20
31783;DHT22;18351;47.560;9.708;2023-05-15T12:25:53;19.00;99.90
31783;DHT22;18351;47.560;9.708;2023-05-15T12:28:22;19.10;96.80
31783;DHT22;18351;47.560;9.708;2023-05-15T12:30:48;18.90;97.40
31783;DHT22;18351;47.560;9.708;2023-05-15T12:33:14;19.00;98.90
31783;DHT22;18351;47.560;9.708;2023-05-15T12:35:48;19.20;98.20
31783;DHT22;18351;47.560;9.708;2023-05-15T12:38:16;19.40;98.90
31783;DHT22;18351;47.560;9.708;2023-05-15T12:40:43;19.60;98.30
31783;DHT22;18351;47.560;9.708;2023-05-15T12:43:10;19.80;97.20
31783;DHT22;18351;47.560;9.708;2023-05-15T12:45:38;19.90;95.20
31783;DHT22;18351;47.560;9.708;2023-05-15T12:48:04;20.00;95.50
31783;DHT22;18351;47.560;9.708;2023-05-15T12:50:34;20.10;96.50
31783;DHT22;18351;47.560;9.708;2023-05-15T12:53:01;19.80;90.50
31783;DHT22;18351;47.560;9.708;2023-05-15T12:55:28;20.10;92.90
31783;DHT22;18351;47.560;9.708;2023-05-15T12:57:57;20.20;91.90
31783;DHT22;18351;47.560;9.708;2023-05-15T13:00:24;20.20;93.90
31783;DHT22;18351;47.560;9.708;2023-05-15T13:02:54;20.20;93.80
31783;DHT22;18351;47.560;9.708;2023-05-15T13:05:24;20.40;93.70
31783;DHT22;18351;47.560;9.708;2023-05-15T13:07:50;20.20;89.40
31783;DHT22;18351;47.560;9.708;2023-05-15T13:10:23;20.10;91.00
31783;DHT22;18351;47.560;9.708;2023-05-15T13:12:50;20.40;91.70
31783;DHT22;18351;47.560;9.708;2023-05-15T13:20:32;20.50;81.30
31783;DHT22;18351;47.560;9.708;2023-05-15T13:22:58;20.20;85.40
31783;DHT22;18351;47.560;9.708;2023-05-15T13:25:23;20.20;89.00
31783;DHT22;18351;47.560;9.708;2023-05-15T13:27:49;20.50;83.50
31783;DHT22;18351;47.560;9.708;2023-05-15T13:30:16;20.70;85.20
31783;DHT22;18351;47.560;9.708;2023-05-15T13:32:42;20.70;83.50
31783;DHT22;18351;47.560;9.708;2023-05-15T13:35:08;20.90;84.60
31783;DHT22;18351;47.560;9.708;2023-05-15T13:37:34;21.10;81.30
31783;DHT22;18351;47.560;9.708;2023-05-15T13:40:00;21.50;83.70
31783;DHT22;18351;47.560;9.708;2023-05-15T13:42:25;21.80;82.80
31783;DHT22;18351;47.560;9.708;2023-05-15T13:44:51;21.80;76.20
31783;DHT22;18351;47.560;9.708;2023-05-15T13:47:16;21.00;85.50
31783;DHT22;18351;47.560;9.708;2023-05-15T13:49:42;20.50;85.20
31783;DHT22;18351;47.560;9.708;2023-05-15T13:52:08;20.10;90.10
31783;DHT22;18351;47.560;9.708;2023-05-15T13:54:33;20.00;90.60
31783;DHT22;18351;47.560;9.708;2023-05-15T13:56:59;19.70;91.10
31783;DHT22;18351;47.560;9.708;2023-05-15T13:59:25;19.70;91.00
31783;DHT22;18351;47.560;9.708;2023-05-15T14:01:51;19.40;92.00
31783;DHT22;18351;47.560;9.708;2023-05-15T14:04:17;19.20;91.80
31783;DHT22;18351;47.560;9.708;2023-05-15T14:06:43;18.80;92.70
31783;DHT22;18351;47.560;9.708;2023-05-15T14:09:08;18.80;92.40
31783;DHT22;18351;47.560;9.708;2023-05-15T14:11:34;18.40;92.50
31783;DHT22;18351;47.560;9.708;2023-05-15T14:14:00;18.10;92.10
31783;DHT22;18351;47.560;9.708;2023-05-15T14:16:25;18.20;93.50
31783;DHT22;18351;47.560;9.708;2023-05-15T14:18:51;18.20;92.80
31783;DHT22;18351;47.560;9.708;2023-05-15T14:21:16;18.30;95.80
31783;DHT22;18351;47.560;9.708;2023-05-15T14:23:42;18.70;94.80
31783;DHT22;18351;47.560;9.708;2023-05-15T14:26:07;19.00;95.60
31783;DHT22;18351;47.560;9.708;2023-05-15T14:28:33;19.30;93.70
31783;DHT22;18351;47.560;9.708;2023-05-15T14:30:59;19.50;93.60
31783;DHT22;18351;47.560;9.708;2023-05-15T14:33:27;19.70;93.00
31783;DHT22;18351;47.560;9.708;2023-05-15T14:35:52;19.90;93.00
31783;DHT22;18351;47.560;9.708;2023-05-15T14:38:18;20.10;91.50
31783;DHT22;18351;47.560;9.708;2023-05-15T14:40:43;20.20;90.90
31783;DHT22;18351;47.560;9.708;2023-05-15T14:43:09;19.70;89.50
31783;DHT22;18351;47.560;9.708;2023-05-15T14:45:35;19.80;88.00
31783;DHT22;18351;47.560;9.708;2023-05-15T14:48:00;19.50;88.10
31783;DHT22;18351;47.560;9.708;2023-05-15T14:50:26;19.40;91.80
31783;DHT22;18351;47.560;9.708;2023-05-15T14:52:52;19.10;91.10
31783;DHT22;18351;47.560;9.708;2023-05-15T14:55:18;18.50;93.10
31783;DHT22;18351;47.560;9.708;2023-05-15T14:57:47;18.20;94.20
31783;DHT22;18351;47.560;9.708;2023-05-15T15:00:15;18.00;95.40
31783;DHT22;18351;47.560;9.708;2023-05-15T15:02:41;17.70;95.40
31783;DHT22;18351;47.560;9.708;2023-05-15T15:05:07;17.30;95.80
31783;DHT22;18351;47.560;9.708;2023-05-15T15:08:00;17.10;95.40
31783;DHT22;18351;47.560;9.708;2023-05-15T15:10:26;16.80;94.60
31783;DHT22;18351;47.560;9.708;2023-05-15T15:12:52;16.60;96.30
31783;DHT22;18351;47.560;9.708;2023-05-15T15:15:19;16.50;95.90
31783;DHT22;18351;47.560;9.708;2023-05-15T15:17:45;16.50;96.40
31783;DHT22;18351;47.560;9.708;2023-05-15T15:20:10;16.60;96.00
31783;DHT22;18351;47.560;9.708;2023-05-15T15:22:36;16.40;95.00
31783;DHT22;18351;47.560;9.708;2023-05-15T15:25:03;16.10;95.50
31783;DHT22;18351;47.560;9.708;2023-05-15T15:27:31;15.70;96.80
31783;DHT22;18351;47.560;9.708;2023-05-15T15:29:57;15.70;97.50
31783;DHT22;18351;47.560;9.708;2023-05-15T15:32:23;15.60;97.70
31783;DHT22;18351;47.560;9.708;2023-05-15T15:34:48;15.60;98.50
31783;DHT22;18351;47.560;9.708;2023-05-15T15:37:14;15.60;98.50
31783;DHT22;18351;47.560;9.708;2023-05-15T15:39:39;15.70;98.40
31783;DHT22;18351;47.560;9.708;2023-05-15T15:42:05;15.50;97.80
31783;DHT22;18351;47.560;9.708;2023-05-15T15:44:33;15.60;97.90
31783;DHT22;18351;47.560;9.708;2023-05-15T15:46:59;15.70;98.30
31783;DHT22;18351;47.560;9.708;2023-05-15T15:49:26;15.60;99.80
31783;DHT22;18351;47.560;9.708;2023-05-15T15:51:52;15.60;99.40
31783;DHT22;18351;47.560;9.708;2023-05-15T15:54:18;15.50;98.70
31783;DHT22;18351;47.560;9.708;2023-05-15T15:56:43;15.50;99.80
31783;DHT22;18351;47.560;9.708;2023-05-15T15:59:09;15.60;99.70
31783;DHT22;18351;47.560;9.708;2023-05-15T16:01:34;15.80;97.90